createdAt,value
2022-11-03T00:01:48.196Z,2.47
2022-11-03T00:04:17.541Z,1.58
2022-11-03T00:06:47.553Z,1.80
2022-11-03T00:09:16.984Z,2.78
2022-11-03T00:11:46.168Z,1.98
2022-11-03T00:14:14.621Z,2.08
2022-11-03T00:16:42.496Z,1.55
2022-11-03T00:19:11.445Z,1.67
2022-11-03T00:21:39.517Z,2.60
2022-11-03T00:24:07.425Z,1.83
2022-11-03T00:26:36.572Z,2.75
2022-11-03T00:29:11.265Z,1.52
2022-11-03T00:31:40.936Z,1.67
2022-11-03T00:34:09.063Z,1.48
2022-11-03T00:36:42.066Z,1.30
2022-11-03T00:39:10.252Z,2.38
2022-11-03T00:41:38.281Z,1.63
2022-11-03T00:44:06.012Z,1.40
2022-11-03T00:46:35.394Z,1.60
2022-11-03T00:49:04.291Z,1.45
2022-11-03T00:51:31.795Z,1.80
2022-11-03T00:54:01.604Z,1.65
2022-11-03T00:56:30.318Z,3.75
2022-11-03T00:59:00.162Z,1.20
2022-11-03T01:01:31.588Z,1.40
2022-11-03T01:04:04.042Z,1.30
2022-11-03T01:09:39.672Z,1.45
2022-11-03T01:12:15.689Z,1.30
2022-11-03T01:14:54.471Z,1.98
2022-11-03T01:17:25.103Z,2.47
2022-11-03T01:19:52.931Z,1.33
2022-11-03T01:22:21.512Z,1.30
2022-11-03T01:24:49.173Z,1.73
2022-11-03T01:27:18.794Z,1.30
2022-11-03T01:29:46.779Z,1.38
2022-11-03T01:32:14.608Z,2.17
2022-11-03T01:34:42.107Z,1.70
2022-11-03T01:37:09.617Z,1.77
2022-11-03T01:39:37.102Z,1.58
2022-11-03T01:42:04.737Z,1.55
2022-11-03T01:44:47.334Z,2.47
2022-11-03T01:47:26.053Z,1.38
2022-11-03T01:50:03.445Z,1.65
2022-11-03T01:52:53.082Z,1.70
2022-11-03T01:55:25.456Z,1.40
2022-11-03T02:00:20.358Z,1.80
2022-11-03T02:02:47.997Z,2.08
2022-11-03T02:05:17.658Z,1.27
2022-11-03T02:07:57.957Z,1.83
2022-11-03T02:10:26.424Z,1.88
2022-11-03T02:12:54.271Z,1.20
2022-11-03T02:15:23.044Z,1.40
2022-11-03T02:17:53.437Z,1.70
2022-11-03T02:20:27.152Z,2.53
2022-11-03T02:23:29.879Z,1.17
2022-11-03T02:26:01.416Z,1.55
2022-11-03T02:28:34.224Z,1.70
2022-11-03T02:31:20.289Z,2.30
2022-11-03T02:34:14.535Z,1.52
2022-11-03T02:36:49.784Z,2.30
2022-11-03T02:39:29.926Z,1.90
2022-11-03T02:42:01.075Z,2.15
2022-11-03T02:44:29.551Z,1.33
2022-11-03T02:47:01.625Z,1.48
2022-11-03T02:49:29.163Z,1.67
2022-11-03T02:52:01.385Z,2.97
2022-11-03T02:54:44.085Z,1.15
2022-11-03T02:57:22.385Z,1.27
2022-11-03T03:00:01.085Z,1.48
2022-11-03T03:02:40.545Z,1.40
2022-11-03T03:05:10.589Z,1.25
2022-11-03T03:07:41.734Z,1.77
2022-11-03T03:10:13.451Z,1.27
2022-11-03T03:13:04.556Z,1.77
2022-11-03T03:16:02.993Z,1.73
2022-11-03T03:18:43.218Z,2.42
2022-11-03T03:21:20.113Z,1.30
2022-11-03T03:23:55.903Z,1.23
2022-11-03T03:26:31.853Z,2.08
2022-11-03T03:29:12.520Z,1.83
2022-11-03T03:31:44.038Z,1.52
2022-11-03T03:34:38.212Z,1.40
2022-11-03T03:37:01.961Z,2.03
2022-11-03T03:39:34.300Z,1.77
2022-11-03T03:44:32.077Z,1.50
2022-11-03T03:47:06.858Z,1.65
2022-11-03T03:49:34.297Z,1.40
2022-11-03T03:52:03.712Z,1.55
2022-11-03T03:54:31.197Z,1.20
2022-11-03T03:57:12.547Z,1.50
2022-11-03T03:59:39.969Z,1.55
2022-11-03T04:02:07.592Z,1.80
2022-11-03T04:04:35.097Z,1.40
2022-11-03T04:07:20.032Z,1.40
2022-11-03T04:09:47.459Z,2.20
2022-11-03T04:12:47.435Z,1.77
2022-11-03T04:15:32.658Z,1.23
2022-11-03T04:18:17.520Z,1.75
2022-11-03T04:21:02.888Z,1.30
2022-11-03T04:23:30.349Z,1.75
2022-11-03T04:25:58.368Z,1.40
2022-11-03T04:28:27.197Z,1.40
2022-11-03T04:30:58.982Z,2.25
2022-11-03T04:33:27.546Z,1.17
2022-11-03T04:35:58.793Z,2.42
2022-11-03T04:38:28.843Z,1.90
2022-11-03T04:40:58.325Z,1.13
2022-11-03T04:43:34.922Z,1.20
2022-11-03T04:46:03.258Z,2.30
2022-11-03T04:48:31.020Z,1.35
2022-11-03T04:51:03.201Z,1.30
2022-11-03T04:53:33.948Z,1.52
2022-11-03T04:56:06.142Z,1.58
2022-11-03T04:58:36.817Z,1.02
2022-11-03T05:01:05.184Z,1.15
2022-11-03T05:03:38.530Z,1.33
2022-11-03T05:06:13.111Z,1.20
2022-11-03T05:08:41.102Z,1.13
2022-11-03T05:11:25.359Z,0.90
2022-11-03T05:13:53.779Z,0.90
2022-11-03T05:16:21.566Z,1.30
2022-11-03T05:18:51.078Z,1.30
2022-11-03T05:21:23.708Z,1.92
2022-11-03T05:23:55.807Z,1.08
2022-11-03T05:26:27.647Z,1.52
2022-11-03T05:28:59.790Z,2.00
2022-11-03T05:31:29.891Z,1.08
2022-11-03T05:33:59.995Z,1.15
2022-11-03T05:36:30.836Z,1.60
2022-11-03T05:39:32.340Z,1.30
2022-11-03T05:42:01.404Z,2.55
2022-11-03T05:44:36.732Z,1.20
2022-11-03T05:47:13.393Z,1.10
2022-11-03T05:49:41.142Z,1.38
2022-11-03T05:52:17.764Z,1.55
2022-11-03T05:54:45.262Z,1.77
2022-11-03T05:57:15.798Z,1.55
2022-11-03T05:59:46.288Z,2.05
2022-11-03T06:02:40.325Z,1.35
2022-11-03T06:05:22.163Z,2.47
2022-11-03T06:07:56.364Z,1.30
2022-11-03T06:10:36.944Z,1.13
2022-11-03T06:13:17.371Z,1.20
2022-11-03T06:15:47.928Z,1.20
2022-11-03T06:18:24.321Z,1.00
2022-11-03T06:21:03.316Z,1.70
2022-11-03T06:23:30.859Z,1.92
2022-11-03T06:25:59.234Z,1.40
2022-11-03T06:28:33.016Z,2.25
2022-11-03T06:31:00.762Z,1.95
2022-11-03T06:33:30.827Z,1.83
2022-11-03T06:36:04.682Z,1.05
2022-11-03T06:38:34.743Z,0.82
2022-11-03T06:41:02.284Z,1.77
2022-11-03T06:43:42.579Z,1.50
2022-11-03T06:46:19.537Z,1.20
2022-11-03T06:48:47.358Z,1.58
2022-11-03T06:51:21.899Z,1.25
2022-11-03T06:53:51.315Z,1.55
2022-11-03T06:56:25.436Z,1.50
2022-11-03T06:58:55.436Z,2.25
2022-11-03T07:01:26.980Z,1.98
2022-11-03T07:04:01.213Z,1.10
2022-11-03T07:06:35.620Z,1.40
2022-11-03T07:09:06.577Z,0.95
2022-11-03T07:11:46.556Z,1.58
2022-11-03T07:14:20.612Z,1.63
2022-11-03T07:16:51.739Z,1.20
2022-11-03T07:19:24.792Z,1.45
2022-11-03T07:22:01.904Z,2.22
2022-11-03T07:24:37.462Z,2.75
2022-11-03T07:27:23.380Z,1.77
2022-11-03T07:29:52.910Z,1.08
2022-11-03T07:32:23.463Z,1.65
2022-11-03T07:34:53.994Z,1.10
2022-11-03T07:37:25.195Z,1.30
2022-11-03T07:39:53.827Z,1.42
2022-11-03T07:42:23.690Z,1.08
2022-11-03T07:44:52.586Z,1.10
2022-11-03T07:47:23.035Z,1.42
2022-11-03T07:49:50.533Z,1.45
2022-11-03T07:52:21.996Z,1.98
2022-11-03T07:54:51.695Z,2.40
2022-11-03T07:57:25.990Z,1.20
2022-11-03T07:59:57.460Z,1.27
2022-11-03T08:02:32.825Z,1.27
2022-11-03T08:05:01.136Z,1.15
2022-11-03T08:07:29.114Z,1.95
2022-11-03T08:09:57.320Z,1.30
2022-11-03T08:12:24.891Z,1.85
2022-11-03T08:14:52.426Z,1.20
2022-11-03T08:17:19.948Z,1.35
2022-11-03T08:19:47.550Z,4.70
2022-11-03T08:22:14.993Z,1.30
2022-11-03T08:24:42.493Z,0.90
2022-11-03T08:27:09.929Z,1.42
2022-11-03T08:29:37.494Z,2.10
2022-11-03T08:32:05.208Z,1.30
2022-11-03T08:34:32.687Z,1.52
2022-11-03T08:37:00.172Z,1.60
2022-11-03T08:39:27.827Z,2.08
2022-11-03T08:41:55.244Z,0.77
2022-11-03T08:44:22.687Z,2.30
2022-11-03T08:46:50.129Z,1.33
2022-11-03T08:49:17.574Z,3.08
2022-11-03T08:51:45.294Z,1.35
2022-11-03T08:54:12.781Z,1.90
2022-11-03T08:56:40.278Z,1.45
2022-11-03T08:59:07.785Z,1.35
2022-11-03T09:01:35.279Z,1.52
2022-11-03T09:04:03.378Z,1.15
2022-11-03T09:06:31.031Z,1.50
2022-11-03T09:11:46.362Z,3.20
2022-11-03T09:14:14.004Z,1.50
2022-11-03T09:16:41.518Z,1.30
2022-11-03T09:19:09.057Z,1.27
2022-11-03T09:21:36.659Z,2.40
2022-11-03T09:24:04.375Z,1.48
2022-11-03T09:26:31.824Z,2.28
2022-11-03T09:28:59.324Z,2.17
2022-11-03T09:31:28.466Z,1.30
2022-11-03T09:33:56.278Z,2.78
2022-11-03T09:36:23.732Z,1.30
2022-11-03T09:38:51.212Z,1.35
2022-11-03T09:41:26.603Z,1.60
2022-11-03T09:44:03.389Z,1.50
2022-11-03T09:46:31.603Z,1.80
2022-11-03T09:48:59.841Z,1.20
2022-11-03T09:51:28.652Z,1.00
2022-11-03T09:54:03.432Z,1.98
2022-11-03T09:56:32.174Z,1.88
2022-11-03T09:59:00.910Z,1.92
2022-11-03T10:01:28.814Z,1.10
2022-11-03T10:04:00.886Z,1.75
2022-11-03T10:06:28.328Z,1.27
2022-11-03T10:08:55.990Z,1.38
2022-11-03T10:11:23.515Z,1.23
2022-11-03T10:13:56.476Z,1.35
2022-11-03T10:16:27.247Z,1.10
2022-11-03T10:18:55.181Z,1.45
2022-11-03T10:21:34.126Z,1.10
2022-11-03T10:24:01.739Z,1.77
2022-11-03T10:26:35.216Z,1.45
2022-11-03T10:29:05.962Z,1.10
2022-11-03T10:31:36.576Z,0.85
2022-11-03T10:34:05.555Z,2.05
2022-11-03T10:36:35.011Z,0.90
2022-11-03T10:39:30.584Z,0.95
2022-11-03T10:41:59.705Z,1.27
2022-11-03T10:44:29.388Z,1.08
2022-11-03T10:46:58.464Z,0.95
2022-11-03T10:49:26.015Z,0.77
2022-11-03T10:51:55.665Z,1.50
2022-11-03T10:54:24.988Z,1.00
2022-11-03T10:56:53.469Z,1.25
2022-11-03T10:59:25.263Z,1.30
2022-11-03T11:01:53.106Z,0.82
2022-11-03T11:04:21.987Z,1.25
2022-11-03T11:06:49.682Z,1.58
2022-11-03T11:09:25.467Z,0.60
2022-11-03T11:12:15.958Z,1.02
2022-11-03T11:15:31.602Z,1.25
2022-11-03T11:17:59.118Z,0.50
2022-11-03T11:20:31.113Z,0.70
2022-11-03T11:23:30.337Z,1.33
2022-11-03T11:26:09.882Z,1.35
2022-11-03T11:28:40.313Z,0.95
2022-11-03T11:31:33.820Z,1.23
2022-11-03T11:34:10.396Z,1.40
2022-11-03T11:36:39.769Z,1.20
2022-11-03T11:39:25.345Z,0.60
2022-11-03T11:42:18.676Z,1.60
2022-11-03T11:44:46.191Z,1.10
2022-11-03T11:47:25.992Z,1.67
2022-11-03T11:50:02.586Z,0.80
2022-11-03T11:52:31.273Z,0.95
2022-11-03T11:54:58.922Z,1.05
2022-11-03T11:57:35.348Z,1.00
2022-11-03T12:00:03.568Z,0.88
2022-11-03T12:02:31.791Z,0.95
2022-11-03T12:05:01.261Z,0.70
2022-11-03T12:07:36.678Z,0.80
2022-11-03T12:10:15.706Z,0.90
2022-11-03T12:12:43.289Z,1.65
2022-11-03T12:15:48.532Z,0.80
2022-11-03T12:18:50.177Z,0.90
2022-11-03T12:22:03.026Z,0.80
2022-11-03T12:24:33.596Z,0.80
2022-11-03T12:27:01.987Z,0.77
2022-11-03T12:29:29.455Z,0.77
2022-11-03T12:31:56.986Z,0.80
2022-11-03T12:34:24.548Z,0.70
2022-11-03T12:36:56.165Z,0.77
2022-11-03T12:39:23.931Z,0.82
2022-11-03T12:41:51.446Z,0.80
2022-11-03T12:44:18.942Z,0.75
2022-11-03T12:46:47.029Z,0.60
2022-11-03T12:49:14.474Z,0.60
2022-11-03T12:51:41.932Z,0.70
2022-11-03T12:54:09.404Z,0.80
2022-11-03T12:56:36.884Z,0.60
2022-11-03T12:59:04.327Z,0.75
2022-11-03T13:01:33.330Z,0.85
2022-11-03T13:04:01.385Z,0.70
2022-11-03T13:06:28.847Z,0.70
2022-11-03T13:08:56.369Z,0.77
2022-11-03T13:11:41.543Z,1.13
2022-11-03T13:14:09.035Z,0.73
2022-11-03T13:16:36.748Z,0.70
2022-11-03T13:19:04.240Z,1.33
2022-11-03T13:21:31.990Z,1.00
2022-11-03T13:23:59.600Z,0.80
2022-11-03T13:26:27.181Z,0.82
2022-11-03T13:28:54.690Z,1.00
2022-11-03T13:31:22.199Z,0.88
2022-11-03T13:33:50.848Z,0.60
2022-11-03T13:36:18.396Z,0.55
2022-11-03T13:38:46.022Z,0.93
2022-11-03T13:41:13.664Z,0.70
2022-11-03T13:43:41.153Z,0.63
2022-11-03T13:46:08.667Z,0.60
2022-11-03T13:51:23.807Z,0.63
2022-11-03T13:59:27.047Z,0.70
2022-11-03T14:04:44.207Z,1.10
2022-11-03T14:07:12.238Z,0.60
2022-11-03T14:09:39.823Z,0.60
2022-11-03T14:12:25.382Z,0.60
2022-11-03T14:14:52.944Z,0.85
2022-11-03T14:17:20.516Z,0.70
2022-11-03T14:19:52.463Z,1.33
2022-11-03T14:22:24.749Z,0.70
2022-11-03T14:24:52.956Z,0.93
2022-11-03T14:27:21.014Z,0.85
2022-11-03T14:29:50.279Z,1.50
2022-11-03T14:32:19.630Z,0.70
2022-11-03T14:34:47.980Z,0.70
2022-11-03T14:37:16.386Z,0.70
2022-11-03T14:39:44.132Z,0.80
2022-11-03T14:42:15.518Z,0.98
2022-11-03T14:44:45.275Z,1.45
2022-11-03T14:47:21.542Z,0.80
2022-11-03T14:49:49.666Z,0.90
2022-11-03T14:52:18.620Z,1.02
2022-11-03T14:54:46.165Z,0.60
2022-11-03T14:57:13.633Z,0.75
2022-11-03T14:59:41.796Z,0.57
2022-11-03T15:02:09.432Z,1.00
2022-11-03T15:04:37.146Z,0.70
2022-11-03T15:07:04.664Z,0.70
2022-11-03T15:09:32.172Z,0.63
2022-11-03T15:11:59.673Z,1.10
2022-11-03T15:14:27.144Z,0.95
2022-11-03T15:16:54.588Z,0.75
2022-11-03T15:19:22.082Z,1.15
2022-11-03T15:21:49.548Z,0.90
2022-11-03T15:27:04.541Z,1.20
2022-11-03T15:29:32.064Z,1.00
2022-11-03T15:31:59.642Z,2.42
2022-11-03T15:34:27.120Z,1.15
2022-11-03T15:36:54.650Z,1.58
2022-11-03T15:39:22.177Z,2.05
2022-11-03T15:41:49.684Z,0.73
2022-11-03T15:44:17.240Z,1.00
2022-11-03T15:46:44.739Z,0.77
2022-11-03T15:49:12.285Z,1.20
2022-11-03T15:51:39.938Z,0.88
2022-11-03T15:54:08.218Z,0.70
2022-11-03T15:56:35.698Z,0.80
2022-11-03T15:59:03.275Z,1.00
2022-11-03T16:01:30.879Z,0.90
2022-11-03T16:03:58.525Z,1.30
2022-11-03T16:06:46.709Z,0.60
2022-11-03T16:09:13.653Z,1.02
2022-11-03T16:11:41.175Z,0.70
2022-11-03T16:14:08.691Z,1.10
2022-11-03T16:16:36.264Z,1.60
2022-11-03T16:19:03.777Z,0.90
2022-11-03T16:21:31.231Z,1.30
2022-11-03T16:23:58.794Z,1.33
2022-11-03T16:26:26.261Z,1.50
2022-11-03T16:28:53.782Z,1.15
2022-11-03T16:31:21.321Z,1.50
2022-11-03T16:33:49.159Z,1.00
2022-11-03T16:36:16.620Z,0.93
2022-11-03T16:38:44.166Z,0.98
2022-11-03T16:41:11.721Z,1.83
2022-11-03T16:43:39.586Z,1.00
2022-11-03T16:46:07.211Z,1.17
2022-11-03T16:48:34.918Z,1.30
2022-11-03T16:51:02.425Z,1.73
2022-11-03T16:53:29.928Z,1.30
2022-11-03T16:55:57.417Z,1.70
2022-11-03T16:58:25.481Z,1.10
2022-11-03T17:00:53.037Z,1.67
2022-11-03T17:03:20.658Z,1.35
2022-11-03T17:05:48.183Z,1.90
2022-11-03T17:08:46.301Z,1.65
2022-11-03T17:11:03.134Z,1.48
2022-11-03T17:13:30.639Z,1.40
2022-11-03T17:15:58.232Z,1.65
2022-11-03T17:18:25.709Z,1.60
2022-11-03T17:20:53.181Z,1.60
2022-11-03T17:23:20.670Z,1.58
2022-11-03T17:25:48.537Z,2.00
2022-11-03T17:28:18.746Z,1.98
2022-11-03T17:30:46.485Z,2.72
2022-11-03T17:33:18.130Z,3.65
2022-11-03T17:35:47.176Z,1.88
2022-11-03T17:38:18.761Z,2.17
2022-11-03T17:40:48.272Z,2.47
2022-11-03T17:43:24.943Z,2.78
2022-11-03T17:45:52.684Z,2.40
2022-11-03T17:48:22.582Z,2.80
2022-11-03T17:50:53.392Z,2.17
2022-11-03T17:53:26.851Z,2.08
2022-11-03T17:56:27.822Z,2.60
2022-11-03T17:58:46.581Z,2.35
2022-11-03T18:01:22.931Z,2.92
2022-11-03T18:03:50.513Z,2.63
2022-11-03T18:06:20.231Z,2.95
2022-11-03T18:08:48.985Z,3.45
2022-11-03T18:11:42.627Z,3.63
2022-11-03T18:14:10.264Z,4.43
2022-11-03T18:16:38.080Z,3.55
2022-11-03T18:19:05.603Z,4.20
2022-11-03T18:21:33.104Z,4.35
2022-11-03T18:24:00.640Z,6.60
2022-11-03T18:26:28.486Z,3.92
2022-11-03T18:28:56.012Z,3.80
2022-11-03T18:31:33.798Z,4.50
2022-11-03T18:34:05.704Z,3.60
2022-11-03T18:36:34.334Z,3.33
2022-11-03T18:39:02.587Z,3.40
2022-11-03T18:41:39.294Z,5.00
2022-11-03T18:44:28.179Z,4.47
2022-11-03T18:46:56.377Z,6.40
2022-11-03T18:49:27.810Z,5.15
2022-11-03T18:52:03.044Z,5.83
2022-11-03T18:54:33.821Z,4.68
2022-11-03T18:57:02.162Z,4.72
2022-11-03T18:59:33.126Z,4.07
2022-11-03T19:02:00.919Z,5.22
2022-11-03T19:04:28.528Z,5.45
2022-11-03T19:06:56.094Z,4.32
2022-11-03T19:09:26.735Z,4.60
2022-11-03T19:11:58.266Z,3.75
2022-11-03T19:14:38.139Z,4.53
2022-11-03T19:17:22.382Z,4.57
2022-11-03T19:19:51.187Z,4.82
2022-11-03T19:22:21.060Z,5.40
2022-11-03T19:24:48.913Z,4.90
2022-11-03T19:27:21.308Z,5.63
2022-11-03T19:29:49.648Z,3.00
2022-11-03T19:32:27.269Z,3.15
2022-11-03T19:35:07.877Z,2.92
2022-11-03T19:37:36.423Z,3.03
2022-11-03T19:40:08.781Z,3.72
2022-11-03T19:42:36.776Z,3.33
2022-11-03T19:45:12.445Z,3.28
2022-11-03T19:47:57.607Z,3.50
2022-11-03T19:50:33.239Z,5.22
2022-11-03T19:53:03.872Z,3.05
2022-11-03T19:55:35.046Z,4.20
2022-11-03T19:58:15.304Z,4.85
2022-11-03T20:00:43.758Z,5.93
2022-11-03T20:03:11.728Z,4.63
2022-11-03T20:05:42.872Z,4.75
2022-11-03T20:08:19.696Z,4.95
2022-11-03T20:10:47.950Z,5.25
2022-11-03T20:13:17.539Z,5.82
2022-11-03T20:15:45.083Z,5.35
2022-11-03T20:18:13.710Z,6.13
2022-11-03T20:20:43.173Z,5.30
2022-11-03T20:23:22.125Z,6.57
2022-11-03T20:25:50.060Z,6.32
2022-11-03T20:28:21.256Z,7.90
2022-11-03T20:30:49.614Z,7.60
2022-11-03T20:33:19.287Z,5.82
2022-11-03T20:35:47.965Z,6.82
2022-11-03T20:38:18.915Z,6.18
2022-11-03T20:40:47.892Z,5.80
2022-11-03T20:43:31.505Z,6.60
2022-11-03T20:45:59.137Z,6.70
2022-11-03T20:48:26.777Z,7.97
2022-11-03T20:50:55.560Z,7.18
2022-11-03T20:53:25.172Z,6.10
2022-11-03T20:55:53.859Z,6.72
2022-11-03T20:58:21.734Z,7.18
2022-11-03T21:00:50.104Z,6.85
2022-11-03T21:03:37.557Z,6.90
2022-11-03T21:06:16.493Z,6.18
2022-11-03T21:08:45.512Z,4.88
2022-11-03T21:11:27.346Z,4.03
2022-11-03T21:13:58.712Z,4.60
2022-11-03T21:16:45.001Z,3.95
2022-11-03T21:19:33.895Z,3.28
2022-11-03T21:22:01.767Z,2.75
2022-11-03T21:24:29.382Z,3.38
2022-11-03T21:26:57.568Z,2.72
2022-11-03T21:29:53.501Z,3.03
2022-11-03T21:32:15.447Z,2.95
2022-11-03T21:34:43.924Z,2.28
2022-11-03T21:37:15.756Z,2.70
2022-11-03T21:39:44.564Z,2.03
2022-11-03T21:42:31.231Z,1.05
2022-11-03T21:44:59.272Z,1.35
2022-11-03T21:47:26.965Z,1.10
2022-11-03T21:49:53.455Z,1.23
2022-11-03T21:52:31.834Z,1.30
2022-11-03T21:55:00.371Z,1.33
2022-11-03T21:57:28.413Z,1.10
2022-11-03T21:59:58.611Z,1.85
2022-11-03T22:02:29.755Z,2.10
2022-11-03T22:04:57.300Z,1.50
2022-11-03T22:07:25.038Z,1.23
2022-11-03T22:09:52.485Z,0.88
2022-11-03T22:12:19.916Z,1.08
2022-11-03T22:15:04.929Z,0.93
2022-11-03T22:17:32.480Z,0.77
2022-11-03T22:20:17.376Z,1.00
2022-11-03T22:23:02.625Z,1.15
2022-11-03T22:25:47.449Z,1.17
2022-11-03T22:28:15.399Z,0.80
2022-11-03T22:31:00.572Z,0.60
2022-11-03T22:33:29.365Z,0.63
2022-11-03T22:36:20.253Z,0.70
2022-11-03T22:39:06.862Z,1.05
2022-11-03T22:41:51.548Z,0.85
2022-11-03T22:44:36.408Z,0.75
2022-11-03T22:47:05.644Z,0.80
2022-11-03T22:49:35.385Z,0.73
2022-11-03T22:52:02.973Z,2.17
2022-11-03T22:54:29.513Z,0.80
2022-11-03T22:56:56.969Z,0.65
2022-11-03T22:59:24.413Z,0.73
2022-11-03T23:01:52.260Z,0.80
2022-11-03T23:04:19.780Z,1.02
2022-11-03T23:06:47.224Z,0.77
2022-11-03T23:09:14.727Z,0.55
2022-11-03T23:11:42.260Z,1.45
2022-11-03T23:14:11.941Z,0.50
2022-11-03T23:16:41.924Z,1.00
2022-11-03T23:19:30.228Z,0.57
2022-11-03T23:21:57.734Z,0.60
2022-11-03T23:24:45.312Z,0.80
2022-11-03T23:27:14.261Z,0.60
2022-11-03T23:29:41.834Z,0.47
2022-11-03T23:32:09.582Z,0.50
2022-11-03T23:34:36.998Z,0.70
2022-11-03T23:37:04.743Z,0.57
2022-11-03T23:39:32.194Z,0.50
2022-11-03T23:41:59.645Z,1.30
2022-11-03T23:44:47.071Z,0.85
2022-11-03T23:47:31.713Z,0.30
2022-11-03T23:49:59.221Z,1.20
2022-11-03T23:52:26.676Z,0.50
2022-11-03T23:54:54.092Z,0.40
2022-11-03T23:57:39.014Z,0.52
